sensor_id;sensor_type;location;lat;lon;timestamp;temperature;humidity
62555;DHT22;48610;52.144;8.624;2022-11-14T00:00:27;4.80;99.90
62555;DHT22;48610;52.144;8.624;2022-11-14T00:03:28;4.50;99.90
62555;DHT22;48610;52.144;8.624;2022-11-14T00:06:29;4.50;99.90
62555;DHT22;48610;52.144;8.624;2022-11-14T00:09:30;4.60;99.90
62555;DHT22;48610;52.144;8.624;2022-11-14T00:12:31;4.50;99.90
62555;DHT22;48610;52.144;8.624;2022-11-14T00:15:32;4.30;99.90
62555;DHT22;48610;52.144;8.624;2022-11-14T00:18:32;4.30;99.90
62555;DHT22;48610;52.144;8.624;2022-11-14T00:21:33;3.90;99.90
62555;DHT22;48610;52.144;8.624;2022-11-14T00:24:34;3.90;99.90
62555;DHT22;48610;52.144;8.624;2022-11-14T00:27:34;3.80;99.90
62555;DHT22;48610;52.144;8.624;2022-11-14T00:30:35;3.80;99.90
62555;DHT22;48610;52.144;8.624;2022-11-14T00:33:35;3.80;99.90
62555;DHT22;48610;52.144;8.624;2022-11-14T00:36:36;4.20;99.90
62555;DHT22;48610;52.144;8.624;2022-11-14T00:39:37;4.20;99.90
62555;DHT22;48610;52.144;8.624;2022-11-14T00:42:37;4.10;99.90
62555;DHT22;48610;52.144;8.624;2022-11-14T00:45:38;4.10;99.90
62555;DHT22;48610;52.144;8.624;2022-11-14T00:48:39;4.10;99.90
62555;DHT22;48610;52.144;8.624;2022-11-14T00:51:39;4.20;99.90
62555;DHT22;48610;52.144;8.624;2022-11-14T00:54:40;4.30;99.90
62555;DHT22;48610;52.144;8.624;2022-11-14T00:57:40;4.10;99.90
62555;DHT22;48610;52.144;8.624;2022-11-14T01:00:41;3.70;99.90
62555;DHT22;48610;52.144;8.624;2022-11-14T01:03:42;3.80;99.90
62555;DHT22;48610;52.144;8.624;2022-11-14T01:06:42;3.90;99.90
62555;DHT22;48610;52.144;8.624;2022-11-14T01:09:43;4.00;99.90
62555;DHT22;48610;52.144;8.624;2022-11-14T01:12:43;3.90;99.90
62555;DHT22;48610;52.144;8.624;2022-11-14T01:15:46;3.90;99.90
62555;DHT22;48610;52.144;8.624;2022-11-14T01:18:47;3.80;99.90
62555;DHT22;48610;52.144;8.624;2022-11-14T01:21:48;3.80;99.90
62555;DHT22;48610;52.144;8.624;2022-11-14T01:24:48;3.90;99.90
62555;DHT22;48610;52.144;8.624;2022-11-14T01:27:49;3.80;99.90
62555;DHT22;48610;52.144;8.624;2022-11-14T01:30:50;3.90;99.90
62555;DHT22;48610;52.144;8.624;2022-11-14T01:33:52;3.90;99.90
62555;DHT22;48610;52.144;8.624;2022-11-14T01:36:52;4.00;99.90
62555;DHT22;48610;52.144;8.624;2022-11-14T01:39:53;4.10;99.90
62555;DHT22;48610;52.144;8.624;2022-11-14T01:46:49;3.90;99.90
62555;DHT22;48610;52.144;8.624;2022-11-14T01:49:54;3.90;99.90
62555;DHT22;48610;52.144;8.624;2022-11-14T01:52:56;3.80;99.90
62555;DHT22;48610;52.144;8.624;2022-11-14T01:56:00;3.70;99.90
62555;DHT22;48610;52.144;8.624;2022-11-14T01:59:07;3.90;99.90
62555;DHT22;48610;52.144;8.624;2022-11-14T02:02:17;4.20;99.90
62555;DHT22;48610;52.144;8.624;2022-11-14T02:05:18;4.20;99.90
62555;DHT22;48610;52.144;8.624;2022-11-14T02:08:19;4.10;99.90
62555;DHT22;48610;52.144;8.624;2022-11-14T02:11:21;4.10;99.90
62555;DHT22;48610;52.144;8.624;2022-11-14T02:14:21;4.20;99.90
62555;DHT22;48610;52.144;8.624;2022-11-14T02:17:24;4.10;99.90
62555;DHT22;48610;52.144;8.624;2022-11-14T02:20:26;4.10;99.90
62555;DHT22;48610;52.144;8.624;2022-11-14T02:23:32;4.10;99.90
62555;DHT22;48610;52.144;8.624;2022-11-14T02:26:33;4.20;99.90
62555;DHT22;48610;52.144;8.624;2022-11-14T02:29:34;4.20;99.90
62555;DHT22;48610;52.144;8.624;2022-11-14T02:32:34;4.20;99.90
62555;DHT22;48610;52.144;8.624;2022-11-14T02:35:35;4.20;99.90
62555;DHT22;48610;52.144;8.624;2022-11-14T02:38:36;4.20;99.90
62555;DHT22;48610;52.144;8.624;2022-11-14T02:41:36;4.20;99.90
62555;DHT22;48610;52.144;8.624;2022-11-14T02:44:37;4.20;99.90
62555;DHT22;48610;52.144;8.624;2022-11-14T02:47:37;4.30;99.90
62555;DHT22;48610;52.144;8.624;2022-11-14T02:50:38;4.20;99.90
62555;DHT22;48610;52.144;8.624;2022-11-14T02:53:38;4.10;99.90
62555;DHT22;48610;52.144;8.624;2022-11-14T02:56:39;4.10;99.90
62555;DHT22;48610;52.144;8.624;2022-11-14T02:59:39;4.10;99.90
62555;DHT22;48610;52.144;8.624;2022-11-14T03:02:40;4.00;99.90
62555;DHT22;48610;52.144;8.624;2022-11-14T03:05:41;4.00;99.90
62555;DHT22;48610;52.144;8.624;2022-11-14T03:08:41;3.80;99.90
62555;DHT22;48610;52.144;8.624;2022-11-14T03:11:42;3.70;99.90
62555;DHT22;48610;52.144;8.624;2022-11-14T03:14:42;3.70;99.90
62555;DHT22;48610;52.144;8.624;2022-11-14T03:17:43;3.70;99.90
62555;DHT22;48610;52.144;8.624;2022-11-14T03:20:43;3.70;99.90
62555;DHT22;48610;52.144;8.624;2022-11-14T03:23:44;3.70;99.90
62555;DHT22;48610;52.144;8.624;2022-11-14T03:26:45;3.60;99.90
62555;DHT22;48610;52.144;8.624;2022-11-14T03:29:47;3.70;99.90
62555;DHT22;48610;52.144;8.624;2022-11-14T03:32:48;3.70;99.90
62555;DHT22;48610;52.144;8.624;2022-11-14T03:35:49;3.60;99.90
62555;DHT22;48610;52.144;8.624;2022-11-14T03:38:50;3.50;99.90
62555;DHT22;48610;52.144;8.624;2022-11-14T03:41:51;3.50;99.90
62555;DHT22;48610;52.144;8.624;2022-11-14T03:44:51;3.50;99.90
62555;DHT22;48610;52.144;8.624;2022-11-14T03:47:53;3.60;99.90
62555;DHT22;48610;52.144;8.624;2022-11-14T03:50:55;3.40;99.90
62555;DHT22;48610;52.144;8.624;2022-11-14T03:53:55;3.40;99.90
62555;DHT22;48610;52.144;8.624;2022-11-14T03:56:56;3.40;99.90
62555;DHT22;48610;52.144;8.624;2022-11-14T03:59:56;3.40;99.90
62555;DHT22;48610;52.144;8.624;2022-11-14T04:02:57;3.30;99.90
62555;DHT22;48610;52.144;8.624;2022-11-14T04:05:58;3.40;99.90
62555;DHT22;48610;52.144;8.624;2022-11-14T04:08:58;3.30;99.90
62555;DHT22;48610;52.144;8.624;2022-11-14T04:12:00;3.30;99.90
62555;DHT22;48610;52.144;8.624;2022-11-14T04:15:00;3.20;99.90
62555;DHT22;48610;52.144;8.624;2022-11-14T04:18:01;3.20;99.90
62555;DHT22;48610;52.144;8.624;2022-11-14T04:21:02;3.20;99.90
62555;DHT22;48610;52.144;8.624;2022-11-14T04:24:03;3.20;99.90
62555;DHT22;48610;52.144;8.624;2022-11-14T04:27:03;3.00;99.90
62555;DHT22;48610;52.144;8.624;2022-11-14T04:30:05;2.90;99.90
62555;DHT22;48610;52.144;8.624;2022-11-14T04:33:05;2.80;99.90
62555;DHT22;48610;52.144;8.624;2022-11-14T04:36:06;2.90;99.90
62555;DHT22;48610;52.144;8.624;2022-11-14T04:39:07;2.80;99.90
62555;DHT22;48610;52.144;8.624;2022-11-14T04:42:07;2.70;99.90
62555;DHT22;48610;52.144;8.624;2022-11-14T04:45:08;2.60;99.90
62555;DHT22;48610;52.144;8.624;2022-11-14T04:48:09;2.20;99.90
62555;DHT22;48610;52.144;8.624;2022-11-14T04:51:09;2.10;99.90
62555;DHT22;48610;52.144;8.624;2022-11-14T04:54:10;1.90;99.90
62555;DHT22;48610;52.144;8.624;2022-11-14T04:57:10;1.90;99.90
62555;DHT22;48610;52.144;8.624;2022-11-14T05:00:11;2.00;99.90
62555;DHT22;48610;52.144;8.624;2022-11-14T05:03:12;2.10;99.90
62555;DHT22;48610;52.144;8.624;2022-11-14T05:06:13;2.30;99.90
62555;DHT22;48610;52.144;8.624;2022-11-14T05:09:13;2.40;99.90
62555;DHT22;48610;52.144;8.624;2022-11-14T05:12:14;2.70;99.90
62555;DHT22;48610;52.144;8.624;2022-11-14T05:15:14;2.80;99.90
62555;DHT22;48610;52.144;8.624;2022-11-14T05:18:15;2.80;99.90
62555;DHT22;48610;52.144;8.624;2022-11-14T05:21:16;2.90;99.90
62555;DHT22;48610;52.144;8.624;2022-11-14T05:24:16;2.80;99.90
62555;DHT22;48610;52.144;8.624;2022-11-14T05:27:18;2.80;99.90
62555;DHT22;48610;52.144;8.624;2022-11-14T05:30:19;2.70;99.90
62555;DHT22;48610;52.144;8.624;2022-11-14T05:33:19;2.70;99.90
62555;DHT22;48610;52.144;8.624;2022-11-14T05:36:20;2.80;99.90
62555;DHT22;48610;52.144;8.624;2022-11-14T05:39:20;2.90;99.90
62555;DHT22;48610;52.144;8.624;2022-11-14T05:42:21;3.10;99.90
62555;DHT22;48610;52.144;8.624;2022-11-14T05:45:22;3.00;99.90
62555;DHT22;48610;52.144;8.624;2022-11-14T05:48:22;2.90;99.90
62555;DHT22;48610;52.144;8.624;2022-11-14T05:51:23;2.80;99.90
62555;DHT22;48610;52.144;8.624;2022-11-14T05:54:23;2.90;99.90
62555;DHT22;48610;52.144;8.624;2022-11-14T05:57:24;2.90;99.90
62555;DHT22;48610;52.144;8.624;2022-11-14T06:00:25;2.90;99.90
62555;DHT22;48610;52.144;8.624;2022-11-14T06:03:30;2.90;99.90
62555;DHT22;48610;52.144;8.624;2022-11-14T06:06:31;3.00;99.90
62555;DHT22;48610;52.144;8.624;2022-11-14T06:09:31;2.80;99.90
62555;DHT22;48610;52.144;8.624;2022-11-14T06:12:32;2.80;99.90
62555;DHT22;48610;52.144;8.624;2022-11-14T06:15:33;2.80;99.90
62555;DHT22;48610;52.144;8.624;2022-11-14T06:18:34;2.80;99.90
62555;DHT22;48610;52.144;8.624;2022-11-14T06:21:34;2.60;99.90
62555;DHT22;48610;52.144;8.624;2022-11-14T06:24:35;2.50;99.90
62555;DHT22;48610;52.144;8.624;2022-11-14T06:27:36;2.30;99.90
62555;DHT22;48610;52.144;8.624;2022-11-14T06:30:36;2.30;99.90
62555;DHT22;48610;52.144;8.624;2022-11-14T06:33:38;2.20;99.90
62555;DHT22;48610;52.144;8.624;2022-11-14T06:36:39;2.20;99.90
62555;DHT22;48610;52.144;8.624;2022-11-14T06:39:39;2.30;99.90
62555;DHT22;48610;52.144;8.624;2022-11-14T06:42:40;2.60;99.90
62555;DHT22;48610;52.144;8.624;2022-11-14T06:45:41;2.70;99.90
62555;DHT22;48610;52.144;8.624;2022-11-14T06:48:42;2.70;99.90
62555;DHT22;48610;52.144;8.624;2022-11-14T06:51:43;2.60;99.90
62555;DHT22;48610;52.144;8.624;2022-11-14T06:54:43;2.40;99.90
62555;DHT22;48610;52.144;8.624;2022-11-14T06:57:44;2.50;99.90
62555;DHT22;48610;52.144;8.624;2022-11-14T07:00:44;2.60;99.90
62555;DHT22;48610;52.144;8.624;2022-11-14T07:03:46;2.70;99.90
62555;DHT22;48610;52.144;8.624;2022-11-14T07:06:46;2.50;99.90
62555;DHT22;48610;52.144;8.624;2022-11-14T07:09:47;2.80;99.90
62555;DHT22;48610;52.144;8.624;2022-11-14T07:12:47;2.80;99.90
62555;DHT22;48610;52.144;8.624;2022-11-14T07:15:50;2.60;99.90
62555;DHT22;48610;52.144;8.624;2022-11-14T07:18:51;2.60;99.90
62555;DHT22;48610;52.144;8.624;2022-11-14T07:21:52;2.50;99.90
62555;DHT22;48610;52.144;8.624;2022-11-14T07:24:52;2.40;99.90
62555;DHT22;48610;52.144;8.624;2022-11-14T07:27:53;2.40;99.90
62555;DHT22;48610;52.144;8.624;2022-11-14T07:30:56;2.40;99.90
62555;DHT22;48610;52.144;8.624;2022-11-14T07:33:56;2.50;99.90
62555;DHT22;48610;52.144;8.624;2022-11-14T07:36:57;2.50;99.90
62555;DHT22;48610;52.144;8.624;2022-11-14T07:39:57;2.90;99.90
62555;DHT22;48610;52.144;8.624;2022-11-14T07:42:59;3.30;99.90
62555;DHT22;48610;52.144;8.624;2022-11-14T07:46:09;3.00;99.90
62555;DHT22;48610;52.144;8.624;2022-11-14T07:49:10;2.80;99.90
62555;DHT22;48610;52.144;8.624;2022-11-14T07:52:10;2.90;99.90
62555;DHT22;48610;52.144;8.624;2022-11-14T07:55:11;3.00;99.90
62555;DHT22;48610;52.144;8.624;2022-11-14T07:58:11;3.10;99.90
62555;DHT22;48610;52.144;8.624;2022-11-14T08:01:13;3.50;99.90
62555;DHT22;48610;52.144;8.624;2022-11-14T08:04:14;3.80;99.90
62555;DHT22;48610;52.144;8.624;2022-11-14T08:07:14;3.90;99.90
62555;DHT22;48610;52.144;8.624;2022-11-14T08:10:15;4.20;99.90
62555;DHT22;48610;52.144;8.624;2022-11-14T08:13:17;4.90;99.90
62555;DHT22;48610;52.144;8.624;2022-11-14T08:16:17;5.10;99.90
62555;DHT22;48610;52.144;8.624;2022-11-14T08:19:18;5.30;99.90
62555;DHT22;48610;52.144;8.624;2022-11-14T08:22:18;5.50;99.90
62555;DHT22;48610;52.144;8.624;2022-11-14T08:25:19;5.70;99.90
62555;DHT22;48610;52.144;8.624;2022-11-14T08:28:19;5.80;99.90
62555;DHT22;48610;52.144;8.624;2022-11-14T08:31:21;6.00;99.90
62555;DHT22;48610;52.144;8.624;2022-11-14T08:34:21;6.50;99.90
62555;DHT22;48610;52.144;8.624;2022-11-14T08:37:22;6.90;99.90
62555;DHT22;48610;52.144;8.624;2022-11-14T08:40:23;7.10;99.90
62555;DHT22;48610;52.144;8.624;2022-11-14T08:43:24;7.40;99.90
62555;DHT22;48610;52.144;8.624;2022-11-14T08:46:25;7.30;99.90
62555;DHT22;48610;52.144;8.624;2022-11-14T08:49:25;7.40;99.90
62555;DHT22;48610;52.144;8.624;2022-11-14T08:52:26;7.60;99.90
62555;DHT22;48610;52.144;8.624;2022-11-14T08:55:26;7.90;99.90
62555;DHT22;48610;52.144;8.624;2022-11-14T08:58:31;8.20;99.90
62555;DHT22;48610;52.144;8.624;2022-11-14T09:01:32;8.20;99.90
62555;DHT22;48610;52.144;8.624;2022-11-14T09:04:32;8.30;99.90
62555;DHT22;48610;52.144;8.624;2022-11-14T09:07:33;8.20;99.90
62555;DHT22;48610;52.144;8.624;2022-11-14T09:10:34;8.40;99.90
62555;DHT22;48610;52.144;8.624;2022-11-14T09:13:34;8.50;99.90
62555;DHT22;48610;52.144;8.624;2022-11-14T09:16:35;8.90;99.90
62555;DHT22;48610;52.144;8.624;2022-11-14T09:19:35;9.20;99.90
62555;DHT22;48610;52.144;8.624;2022-11-14T09:22:36;9.40;99.90
62555;DHT22;48610;52.144;8.624;2022-11-14T09:25:37;9.60;99.90
62555;DHT22;48610;52.144;8.624;2022-11-14T09:28:38;9.90;99.90
62555;DHT22;48610;52.144;8.624;2022-11-14T09:31:38;10.20;99.90
62555;DHT22;48610;52.144;8.624;2022-11-14T09:34:39;10.10;99.90
62555;DHT22;48610;52.144;8.624;2022-11-14T09:37:42;10.10;99.90
62555;DHT22;48610;52.144;8.624;2022-11-14T09:47:29;10.00;99.90
62555;DHT22;48610;52.144;8.624;2022-11-14T09:50:33;10.00;99.90
62555;DHT22;48610;52.144;8.624;2022-11-14T09:53:45;9.90;99.90
62555;DHT22;48610;52.144;8.624;2022-11-14T09:56:47;10.00;99.90
62555;DHT22;48610;52.144;8.624;2022-11-14T09:59:48;10.00;99.90
62555;DHT22;48610;52.144;8.624;2022-11-14T10:06:30;10.40;99.90
62555;DHT22;48610;52.144;8.624;2022-11-14T10:13:10;10.80;99.90
62555;DHT22;48610;52.144;8.624;2022-11-14T10:26:02;10.90;99.90
62555;DHT22;48610;52.144;8.624;2022-11-14T10:36:16;11.20;99.90
62555;DHT22;48610;52.144;8.624;2022-11-14T10:39:30;11.00;99.90
62555;DHT22;48610;52.144;8.624;2022-11-14T10:42:36;11.10;99.90
62555;DHT22;48610;52.144;8.624;2022-11-14T10:45:41;10.60;99.90
62555;DHT22;48610;52.144;8.624;2022-11-14T10:48:45;10.60;99.90
62555;DHT22;48610;52.144;8.624;2022-11-14T10:51:54;10.80;99.90
62555;DHT22;48610;52.144;8.624;2022-11-14T10:54:59;10.80;99.90
62555;DHT22;48610;52.144;8.624;2022-11-14T10:58:06;11.00;99.90
62555;DHT22;48610;52.144;8.624;2022-11-14T11:01:37;11.10;99.90
62555;DHT22;48610;52.144;8.624;2022-11-14T11:04:41;11.50;99.90
62555;DHT22;48610;52.144;8.624;2022-11-14T11:07:44;11.10;99.90
62555;DHT22;48610;52.144;8.624;2022-11-14T11:11:08;11.20;99.90
62555;DHT22;48610;52.144;8.624;2022-11-14T11:14:29;11.50;99.90
62555;DHT22;48610;52.144;8.624;2022-11-14T11:17:30;12.00;99.90
62555;DHT22;48610;52.144;8.624;2022-11-14T11:20:36;12.10;99.90
62555;DHT22;48610;52.144;8.624;2022-11-14T11:23:51;12.00;99.90
62555;DHT22;48610;52.144;8.624;2022-11-14T11:27:12;11.50;99.90
62555;DHT22;48610;52.144;8.624;2022-11-14T11:30:19;11.70;99.90
62555;DHT22;48610;52.144;8.624;2022-11-14T11:36:22;11.80;99.90
62555;DHT22;48610;52.144;8.624;2022-11-14T11:39:27;11.70;99.90
62555;DHT22;48610;52.144;8.624;2022-11-14T11:45:46;11.70;99.90
62555;DHT22;48610;52.144;8.624;2022-11-14T11:48:52;11.80;99.90
62555;DHT22;48610;52.144;8.624;2022-11-14T11:51:55;11.60;99.90
62555;DHT22;48610;52.144;8.624;2022-11-14T12:01:28;11.50;99.90
62555;DHT22;48610;52.144;8.624;2022-11-14T12:04:29;11.80;99.90
62555;DHT22;48610;52.144;8.624;2022-11-14T12:10:52;11.60;99.90
62555;DHT22;48610;52.144;8.624;2022-11-14T12:27:14;11.80;99.90
62555;DHT22;48610;52.144;8.624;2022-11-14T12:30:18;12.10;99.90
62555;DHT22;48610;52.144;8.624;2022-11-14T12:33:31;12.20;99.90
62555;DHT22;48610;52.144;8.624;2022-11-14T12:36:34;12.10;99.90
62555;DHT22;48610;52.144;8.624;2022-11-14T12:39:34;11.90;99.90
62555;DHT22;48610;52.144;8.624;2022-11-14T12:42:35;12.00;99.90
62555;DHT22;48610;52.144;8.624;2022-11-14T12:48:41;11.70;99.90
62555;DHT22;48610;52.144;8.624;2022-11-14T12:54:46;12.10;99.90
62555;DHT22;48610;52.144;8.624;2022-11-14T12:58:05;12.00;99.90
62555;DHT22;48610;52.144;8.624;2022-11-14T13:10:51;11.50;99.90
62555;DHT22;48610;52.144;8.624;2022-11-14T13:13:59;11.80;99.90
62555;DHT22;48610;52.144;8.624;2022-11-14T13:17:23;11.80;99.90
62555;DHT22;48610;52.144;8.624;2022-11-14T13:20:43;11.70;99.90
62555;DHT22;48610;52.144;8.624;2022-11-14T13:24:03;11.60;99.90
62555;DHT22;48610;52.144;8.624;2022-11-14T13:27:27;11.70;99.90
62555;DHT22;48610;52.144;8.624;2022-11-14T13:41:18;11.50;99.90
62555;DHT22;48610;52.144;8.624;2022-11-14T13:51:08;11.30;99.90
62555;DHT22;48610;52.144;8.624;2022-11-14T13:54:16;11.40;99.90
62555;DHT22;48610;52.144;8.624;2022-11-14T13:58:30;11.40;99.90
62555;DHT22;48610;52.144;8.624;2022-11-14T14:01:19;11.50;99.90
62555;DHT22;48610;52.144;8.624;2022-11-14T14:18:07;11.50;99.90
62555;DHT22;48610;52.144;8.624;2022-11-14T14:21:18;11.60;99.90
62555;DHT22;48610;52.144;8.624;2022-11-14T14:24:34;11.60;99.90
62555;DHT22;48610;52.144;8.624;2022-11-14T14:31:13;11.50;99.90
62555;DHT22;48610;52.144;8.624;2022-11-14T14:34:30;11.40;99.90
62555;DHT22;48610;52.144;8.624;2022-11-14T14:37:31;11.30;99.90
62555;DHT22;48610;52.144;8.624;2022-11-14T14:40:34;11.30;99.90
62555;DHT22;48610;52.144;8.624;2022-11-14T14:43:35;11.20;99.90
62555;DHT22;48610;52.144;8.624;2022-11-14T14:46:36;11.20;99.90
62555;DHT22;48610;52.144;8.624;2022-11-14T14:49:37;11.10;99.90
62555;DHT22;48610;52.144;8.624;2022-11-14T14:52:38;11.00;99.90
62555;DHT22;48610;52.144;8.624;2022-11-14T14:55:39;11.00;99.90
62555;DHT22;48610;52.144;8.624;2022-11-14T14:58:39;11.00;99.90
62555;DHT22;48610;52.144;8.624;2022-11-14T15:01:40;10.90;99.90
62555;DHT22;48610;52.144;8.624;2022-11-14T15:04:40;10.80;99.90
62555;DHT22;48610;52.144;8.624;2022-11-14T15:07:41;10.80;99.90
62555;DHT22;48610;52.144;8.624;2022-11-14T15:10:45;10.80;99.90
62555;DHT22;48610;52.144;8.624;2022-11-14T15:13:51;10.70;99.90
62555;DHT22;48610;52.144;8.624;2022-11-14T15:16:52;10.60;99.90
62555;DHT22;48610;52.144;8.624;2022-11-14T15:19:53;10.50;99.90
62555;DHT22;48610;52.144;8.624;2022-11-14T15:26:15;10.40;99.90
62555;DHT22;48610;52.144;8.624;2022-11-14T15:29:25;10.20;99.90
62555;DHT22;48610;52.144;8.624;2022-11-14T15:32:26;10.20;99.90
62555;DHT22;48610;52.144;8.624;2022-11-14T15:35:32;10.10;99.90
62555;DHT22;48610;52.144;8.624;2022-11-14T15:38:34;9.90;99.90
62555;DHT22;48610;52.144;8.624;2022-11-14T15:41:34;10.00;99.90
62555;DHT22;48610;52.144;8.624;2022-11-14T15:44:35;10.10;99.90
62555;DHT22;48610;52.144;8.624;2022-11-14T15:47:38;10.00;99.90
62555;DHT22;48610;52.144;8.624;2022-11-14T15:50:39;10.10;99.90
62555;DHT22;48610;52.144;8.624;2022-11-14T15:53:44;10.10;99.90
62555;DHT22;48610;52.144;8.624;2022-11-14T15:56:46;10.00;99.90
62555;DHT22;48610;52.144;8.624;2022-11-14T15:59:46;10.00;99.90
62555;DHT22;48610;52.144;8.624;2022-11-14T16:02:51;9.90;99.90
62555;DHT22;48610;52.144;8.624;2022-11-14T16:05:52;9.90;99.90
62555;DHT22;48610;52.144;8.624;2022-11-14T16:08:53;9.90;99.90
62555;DHT22;48610;52.144;8.624;2022-11-14T16:11:53;10.00;99.90
62555;DHT22;48610;52.144;8.624;2022-11-14T16:14:54;10.00;99.90
62555;DHT22;48610;52.144;8.624;2022-11-14T16:17:55;10.00;99.90
62555;DHT22;48610;52.144;8.624;2022-11-14T16:20:55;10.00;99.90
62555;DHT22;48610;52.144;8.624;2022-11-14T16:23:58;10.00;99.90
62555;DHT22;48610;52.144;8.624;2022-11-14T16:26:59;10.00;99.90
62555;DHT22;48610;52.144;8.624;2022-11-14T16:29:59;10.00;99.90
62555;DHT22;48610;52.144;8.624;2022-11-14T16:33:00;9.90;99.90
62555;DHT22;48610;52.144;8.624;2022-11-14T16:36:01;9.70;99.90
62555;DHT22;48610;52.144;8.624;2022-11-14T16:39:02;9.60;99.90
62555;DHT22;48610;52.144;8.624;2022-11-14T16:42:03;9.50;99.90
62555;DHT22;48610;52.144;8.624;2022-11-14T16:45:05;9.40;99.90
62555;DHT22;48610;52.144;8.624;2022-11-14T16:48:05;9.30;99.90
62555;DHT22;48610;52.144;8.624;2022-11-14T16:51:06;9.20;99.90
62555;DHT22;48610;52.144;8.624;2022-11-14T16:54:09;9.00;99.90
62555;DHT22;48610;52.144;8.624;2022-11-14T16:57:10;8.90;99.90
62555;DHT22;48610;52.144;8.624;2022-11-14T17:00:12;8.90;99.90
62555;DHT22;48610;52.144;8.624;2022-11-14T17:03:13;9.00;99.90
62555;DHT22;48610;52.144;8.624;2022-11-14T17:06:13;9.00;99.90
62555;DHT22;48610;52.144;8.624;2022-11-14T17:09:14;8.90;99.90
62555;DHT22;48610;52.144;8.624;2022-11-14T17:12:15;8.80;99.90
62555;DHT22;48610;52.144;8.624;2022-11-14T17:15:15;8.70;99.90
62555;DHT22;48610;52.144;8.624;2022-11-14T17:18:16;8.70;99.90
62555;DHT22;48610;52.144;8.624;2022-11-14T17:21:17;8.70;99.90
62555;DHT22;48610;52.144;8.624;2022-11-14T17:24:18;8.60;99.90
62555;DHT22;48610;52.144;8.624;2022-11-14T17:27:18;8.60;99.90
62555;DHT22;48610;52.144;8.624;2022-11-14T17:30:19;8.60;99.90
62555;DHT22;48610;52.144;8.624;2022-11-14T17:33:19;8.50;99.90
62555;DHT22;48610;52.144;8.624;2022-11-14T17:36:21;8.50;99.90
62555;DHT22;48610;52.144;8.624;2022-11-14T17:39:22;8.40;99.90
62555;DHT22;48610;52.144;8.624;2022-11-14T17:42:22;8.60;99.90
62555;DHT22;48610;52.144;8.624;2022-11-14T17:45:23;8.70;99.90
62555;DHT22;48610;52.144;8.624;2022-11-14T17:48:24;8.60;99.90
62555;DHT22;48610;52.144;8.624;2022-11-14T17:51:24;8.40;99.90
62555;DHT22;48610;52.144;8.624;2022-11-14T17:54:25;8.30;99.90
62555;DHT22;48610;52.144;8.624;2022-11-14T17:57:26;8.20;99.90
62555;DHT22;48610;52.144;8.624;2022-11-14T18:00:26;8.10;99.90
62555;DHT22;48610;52.144;8.624;2022-11-14T18:03:28;7.90;99.90
62555;DHT22;48610;52.144;8.624;2022-11-14T18:06:29;8.00;99.90
62555;DHT22;48610;52.144;8.624;2022-11-14T18:09:29;7.90;99.90
62555;DHT22;48610;52.144;8.624;2022-11-14T18:12:30;7.90;99.90
62555;DHT22;48610;52.144;8.624;2022-11-14T18:15:31;8.00;99.90
62555;DHT22;48610;52.144;8.624;2022-11-14T18:18:33;8.20;99.90
62555;DHT22;48610;52.144;8.624;2022-11-14T18:21:34;8.20;99.90
62555;DHT22;48610;52.144;8.624;2022-11-14T18:24:37;8.30;99.90
62555;DHT22;48610;52.144;8.624;2022-11-14T18:27:40;8.10;99.90
62555;DHT22;48610;52.144;8.624;2022-11-14T18:30:41;8.20;99.90
62555;DHT22;48610;52.144;8.624;2022-11-14T18:33:42;8.40;99.90
62555;DHT22;48610;52.144;8.624;2022-11-14T18:36:43;8.30;99.90
62555;DHT22;48610;52.144;8.624;2022-11-14T18:39:43;8.30;99.90
62555;DHT22;48610;52.144;8.624;2022-11-14T18:42:44;8.40;99.90
62555;DHT22;48610;52.144;8.624;2022-11-14T18:45:45;8.40;99.90
62555;DHT22;48610;52.144;8.624;2022-11-14T18:48:47;8.40;99.90
62555;DHT22;48610;52.144;8.624;2022-11-14T18:51:48;8.50;99.90
62555;DHT22;48610;52.144;8.624;2022-11-14T18:54:49;8.50;99.90
62555;DHT22;48610;52.144;8.624;2022-11-14T18:57:49;8.60;99.90
62555;DHT22;48610;52.144;8.624;2022-11-14T19:00:50;8.70;99.90
62555;DHT22;48610;52.144;8.624;2022-11-14T19:03:53;8.80;99.90
62555;DHT22;48610;52.144;8.624;2022-11-14T19:06:54;8.90;99.90
62555;DHT22;48610;52.144;8.624;2022-11-14T19:09:55;8.90;99.90
62555;DHT22;48610;52.144;8.624;2022-11-14T19:12:56;9.00;99.90
62555;DHT22;48610;52.144;8.624;2022-11-14T19:16:03;8.90;99.90
62555;DHT22;48610;52.144;8.624;2022-11-14T19:19:05;8.80;99.90
62555;DHT22;48610;52.144;8.624;2022-11-14T19:22:06;8.90;99.90
62555;DHT22;48610;52.144;8.624;2022-11-14T19:25:07;9.00;99.90
62555;DHT22;48610;52.144;8.624;2022-11-14T19:28:08;9.00;99.90
62555;DHT22;48610;52.144;8.624;2022-11-14T19:31:09;9.00;99.90
62555;DHT22;48610;52.144;8.624;2022-11-14T19:34:10;9.10;99.90
62555;DHT22;48610;52.144;8.624;2022-11-14T19:37:11;9.20;99.90
62555;DHT22;48610;52.144;8.624;2022-11-14T19:40:12;9.20;99.90
62555;DHT22;48610;52.144;8.624;2022-11-14T19:43:12;9.30;99.90
62555;DHT22;48610;52.144;8.624;2022-11-14T19:46:14;9.40;99.90
62555;DHT22;48610;52.144;8.624;2022-11-14T19:49:16;9.30;99.90
62555;DHT22;48610;52.144;8.624;2022-11-14T19:52:16;9.20;99.90
62555;DHT22;48610;52.144;8.624;2022-11-14T19:55:18;9.30;99.90
62555;DHT22;48610;52.144;8.624;2022-11-14T19:58:18;9.30;99.90
62555;DHT22;48610;52.144;8.624;2022-11-14T20:01:22;9.40;99.90
62555;DHT22;48610;52.144;8.624;2022-11-14T20:04:22;9.60;99.90
62555;DHT22;48610;52.144;8.624;2022-11-14T20:07:23;9.80;99.90
62555;DHT22;48610;52.144;8.624;2022-11-14T20:10:23;9.80;99.90
62555;DHT22;48610;52.144;8.624;2022-11-14T20:13:25;9.70;99.90
62555;DHT22;48610;52.144;8.624;2022-11-14T20:16:33;9.70;99.90
62555;DHT22;48610;52.144;8.624;2022-11-14T20:19:34;9.80;99.90
62555;DHT22;48610;52.144;8.624;2022-11-14T20:22:34;9.90;99.90
62555;DHT22;48610;52.144;8.624;2022-11-14T20:25:35;9.80;99.90
62555;DHT22;48610;52.144;8.624;2022-11-14T20:28:37;9.90;99.90
62555;DHT22;48610;52.144;8.624;2022-11-14T20:31:38;9.90;99.90
62555;DHT22;48610;52.144;8.624;2022-11-14T20:34:39;9.90;99.90
62555;DHT22;48610;52.144;8.624;2022-11-14T20:37:40;9.80;99.90
62555;DHT22;48610;52.144;8.624;2022-11-14T20:40:40;9.90;99.90
62555;DHT22;48610;52.144;8.624;2022-11-14T20:43:41;9.80;99.90
62555;DHT22;48610;52.144;8.624;2022-11-14T20:46:42;9.80;99.90
62555;DHT22;48610;52.144;8.624;2022-11-14T20:49:43;9.80;99.90
62555;DHT22;48610;52.144;8.624;2022-11-14T20:52:45;9.70;99.90
62555;DHT22;48610;52.144;8.624;2022-11-14T20:55:51;9.70;99.90
62555;DHT22;48610;52.144;8.624;2022-11-14T20:58:52;9.70;99.90
62555;DHT22;48610;52.144;8.624;2022-11-14T21:01:53;9.80;99.90
62555;DHT22;48610;52.144;8.624;2022-11-14T21:04:54;9.90;99.90
62555;DHT22;48610;52.144;8.624;2022-11-14T21:07:54;9.80;99.90
62555;DHT22;48610;52.144;8.624;2022-11-14T21:11:00;9.80;99.90
62555;DHT22;48610;52.144;8.624;2022-11-14T21:14:01;9.80;99.90
62555;DHT22;48610;52.144;8.624;2022-11-14T21:17:03;9.80;99.90
62555;DHT22;48610;52.144;8.624;2022-11-14T21:20:04;9.80;99.90
62555;DHT22;48610;52.144;8.624;2022-11-14T21:23:05;9.80;99.90